Time;durP1;ratioP1;P1;durP2;ratioP2;P2;SDS_P1;SDS_P2;PMS_P1;PMS_P2;Temp;Humidity;BMP_temperature;BMP_pressure;BME280_temperature;BME280_humidity;BME280_pressure;Samples;Min_cycle;Max_cycle;Signal;HPM_P1;HPM_P2
2022/03/17 00:00:46;;;;;;;9.95;6.53;;;18.30;42.90;17.30;101702.00;;;;5059022;28;20227;-64
2022/03/17 00:03:32;;;;;;;10.23;7.32;;;18.30;42.80;17.30;101696.00;;;;5062346;28;20521;-64
2022/03/17 00:06:18;;;;;;;10.23;7.13;;;18.30;42.80;17.30;101692.00;;;;5059144;28;20036;-64
2022/03/17 00:09:06;;;;;;;10.70;6.85;;;18.30;42.90;17.30;101691.00;;;;5063900;28;20048;-64
2022/03/17 00:11:52;;;;;;;11.50;7.03;;;18.30;42.90;17.30;101687.00;;;;5053510;28;20031;-64
2022/03/17 00:14:38;;;;;;;8.88;6.78;;;18.30;42.90;17.30;101680.00;;;;5055576;28;20040;-64
2022/03/17 00:17:26;;;;;;;10.98;7.38;;;18.30;42.90;17.30;101683.00;;;;5063821;28;20317;-64
2022/03/17 00:20:13;;;;;;;10.65;7.40;;;18.30;42.90;17.30;101688.00;;;;5062991;28;20040;-64
2022/03/17 00:22:59;;;;;;;9.18;7.07;;;18.30;42.90;17.30;101676.00;;;;5047160;28;20068;-64
2022/03/17 00:25:45;;;;;;;10.30;7.25;;;18.30;42.90;17.30;101676.00;;;;5061121;28;20517;-64
2022/03/17 00:28:32;;;;;;;10.63;6.88;;;18.30;42.90;17.30;101679.00;;;;5059222;28;20045;-64
2022/03/17 00:31:18;;;;;;;9.95;7.05;;;18.30;42.90;17.30;101675.00;;;;5063192;28;20474;-64
2022/03/17 00:34:07;;;;;;;10.77;7.20;;;18.30;42.90;17.30;101680.00;;;;5061570;28;20041;-64
2022/03/17 00:36:53;;;;;;;10.35;7.50;;;18.30;42.90;17.30;101678.00;;;;5048513;28;20041;-64
2022/03/17 00:39:39;;;;;;;12.30;7.18;;;18.30;42.90;17.30;101677.00;;;;5058969;28;20051;-64
2022/03/17 00:42:27;;;;;;;9.68;6.95;;;18.30;42.90;17.30;101677.00;;;;5059147;28;20056;-64
2022/03/17 00:45:13;;;;;;;10.07;6.95;;;18.30;42.90;17.30;101666.00;;;;5061624;28;20439;-64
2022/03/17 00:47:59;;;;;;;10.25;7.38;;;18.30;42.90;17.30;101680.00;;;;5058089;28;20048;-64
2022/03/17 00:50:45;;;;;;;9.02;6.47;;;18.30;42.90;17.30;101685.00;;;;5066142;28;20485;-64
2022/03/17 00:53:31;;;;;;;10.50;7.40;;;18.30;42.90;17.30;101689.00;;;;5066116;28;20048;-64
2022/03/17 00:56:17;;;;;;;11.07;7.32;;;18.30;42.90;17.30;101683.00;;;;5062706;28;20036;-65
2022/03/17 00:59:03;;;;;;;10.45;6.45;;;18.30;42.90;17.30;101678.00;;;;5050033;28;20474;-64
2022/03/17 01:01:49;;;;;;;10.15;6.97;;;18.30;42.90;17.30;101682.00;;;;5059402;28;20044;-64
2022/03/17 01:04:35;;;;;;;8.95;6.50;;;18.30;43.00;17.30;101686.00;;;;5059085;28;20308;-64
2022/03/17 01:07:21;;;;;;;11.10;6.93;;;18.30;42.90;17.30;101683.00;;;;5057382;28;20045;-64
2022/03/17 01:10:10;;;;;;;11.48;7.18;;;18.30;43.00;17.30;101669.00;;;;5065411;28;20032;-64
2022/03/17 01:12:56;;;;;;;10.48;7.47;;;18.30;43.00;17.30;101665.00;;;;5061276;28;20128;-64
2022/03/17 01:15:42;;;;;;;10.90;7.03;;;18.30;43.00;17.30;101670.00;;;;5055537;28;20115;-64
2022/03/17 01:18:28;;;;;;;11.13;7.40;;;18.30;43.00;17.30;101671.00;;;;5066714;28;20052;-64
2022/03/17 01:21:14;;;;;;;10.63;7.03;;;18.30;43.00;17.30;101670.00;;;;5058824;28;20040;-64
2022/03/17 01:24:00;;;;;;;10.02;6.68;;;18.40;43.00;17.30;101668.00;;;;5058231;28;20045;-64
2022/03/17 01:26:46;;;;;;;11.18;6.95;;;18.30;43.00;17.30;101660.00;;;;5050876;28;20401;-65
2022/03/17 01:29:32;;;;;;;10.55;6.80;;;18.30;43.00;17.30;101660.00;;;;5048253;28;20397;-64
2022/03/17 01:32:19;;;;;;;9.63;7.10;;;18.40;43.00;17.30;101657.00;;;;5066505;28;20033;-64
2022/03/17 01:35:07;;;;;;;11.07;7.15;;;18.30;43.00;17.30;101652.00;;;;5047329;28;20119;-64
2022/03/17 01:37:53;;;;;;;11.35;7.35;;;18.30;43.00;17.30;101654.00;;;;5072314;28;20225;-64
2022/03/17 01:40:39;;;;;;;11.07;7.47;;;18.30;43.00;17.30;101644.00;;;;5046777;28;20044;-64
2022/03/17 01:43:25;;;;;;;10.35;6.65;;;18.30;43.00;17.30;101642.00;;;;5061706;28;20504;-64
2022/03/17 01:46:14;;;;;;;8.85;6.78;;;18.30;43.00;17.30;101642.00;;;;5059642;28;20044;-64
2022/03/17 01:49:00;;;;;;;10.52;7.57;;;18.30;43.00;17.30;101647.00;;;;5063541;28;20588;-64
2022/03/17 01:51:47;;;;;;;11.27;7.28;;;18.30;43.00;17.30;101637.00;;;;5064427;28;20036;-64
2022/03/17 01:54:34;;;;;;;10.70;6.97;;;18.30;43.00;17.30;101636.00;;;;5059770;28;20052;-64
2022/03/17 01:57:20;;;;;;;10.50;7.47;;;18.30;43.10;17.30;101608.00;;;;5038732;28;20086;-65
2022/03/17 02:00:10;;;;;;;10.43;7.10;;;18.30;43.00;17.30;101607.00;;;;5057318;28;20037;-64
2022/03/17 02:02:56;;;;;;;8.80;6.45;;;18.30;43.00;17.30;101593.00;;;;5055556;28;20035;-64
2022/03/17 02:05:43;;;;;;;10.50;7.18;;;18.30;43.00;17.30;101586.00;;;;5059158;28;20028;-64
2022/03/17 02:08:29;;;;;;;9.48;7.00;;;18.30;43.00;17.30;101592.00;;;;5058166;28;20064;-64
2022/03/17 02:14:22;;;;;;;10.73;7.43;;;18.30;43.00;17.30;101602.00;;;;5050937;28;20037;-64
2022/03/17 02:17:09;;;;;;;9.95;7.20;;;18.30;43.10;17.30;101605.00;;;;5063593;28;20037;-64
2022/03/17 02:19:55;;;;;;;10.90;7.90;;;18.30;43.80;17.30;101613.00;;;;5054389;28;20049;-64
2022/03/17 02:22:46;;;;;;;11.80;7.25;;;18.30;43.10;17.30;101602.00;;;;5058935;28;20501;-64
2022/03/17 02:25:35;;;;;;;9.05;7.05;;;18.30;43.10;17.30;101602.00;;;;5046735;28;20044;-64
2022/03/17 02:28:22;;;;;;;9.15;7.00;;;18.30;43.10;17.30;101602.00;;;;5054241;28;20045;-64
2022/03/17 02:31:08;;;;;;;9.75;7.32;;;18.30;43.10;17.30;101606.00;;;;5051245;28;20037;-65
2022/03/17 02:33:54;;;;;;;10.15;7.20;;;18.30;43.10;17.30;101598.00;;;;5057767;28;20091;-64
2022/03/17 02:36:48;;;;;;;9.80;6.88;;;18.30;43.20;17.30;101593.00;;;;5065282;28;20297;-64
2022/03/17 02:39:34;;;;;;;10.15;7.05;;;18.20;43.20;17.30;101592.00;;;;5056165;28;20082;-64
2022/03/17 02:42:20;;;;;;;11.25;7.15;;;18.30;43.20;17.30;101591.00;;;;5061151;28;20041;-64
2022/03/17 02:45:08;;;;;;;9.70;7.03;;;18.30;43.20;17.30;101600.00;;;;5059266;28;20037;-64
2022/03/17 02:47:54;;;;;;;;;;;18.30;43.20;17.20;101595.00;;;;5058435;28;20080;-64
2022/03/17 02:50:40;;;;;;;9.10;6.65;;;18.30;43.20;17.20;101597.00;;;;5060247;28;19923;-64
2022/03/17 02:53:26;;;;;;;11.68;7.82;;;18.40;43.20;17.20;101598.00;;;;5039313;28;20049;-64
2022/03/17 02:56:13;;;;;;;11.23;7.65;;;18.30;43.20;17.20;101591.00;;;;5060325;28;20041;-64
2022/03/17 02:58:59;;;;;;;11.05;7.53;;;18.20;43.10;17.20;101589.00;;;;5051398;28;20040;-64
2022/03/17 03:01:45;;;;;;;11.30;7.80;;;18.20;43.20;17.20;101580.00;;;;5056991;28;20104;-64
2022/03/17 03:04:34;;;;;;;11.10;7.55;;;18.30;43.20;17.20;101582.00;;;;5065848;28;20047;-64
2022/03/17 03:07:20;;;;;;;11.18;7.30;;;18.20;43.20;17.20;101590.00;;;;5059507;28;20473;-64
2022/03/17 03:10:07;;;;;;;10.52;7.45;;;18.20;43.20;17.30;101592.00;;;;5058938;28;20029;-64
2022/03/17 03:12:53;;;;;;;9.95;7.53;;;18.20;43.20;17.30;101605.00;;;;5040936;28;20037;-64
2022/03/17 03:15:39;;;;;;;11.15;7.78;;;18.20;43.20;17.30;101600.00;;;;5055605;28;20036;-64
2022/03/17 03:18:25;;;;;;;11.45;7.43;;;18.20;43.20;17.30;101597.00;;;;5069013;28;20430;-64
2022/03/17 03:21:11;;;;;;;10.90;7.32;;;18.20;43.20;17.20;101596.00;;;;5056938;28;20056;-64
2022/03/17 03:23:57;;;;;;;10.70;6.93;;;18.20;43.20;17.20;101589.00;;;;5055414;28;20426;-64
2022/03/17 03:26:43;;;;;;;9.57;7.07;;;18.20;43.30;17.30;101603.00;;;;5051152;28;20040;-64
2022/03/17 03:29:30;;;;;;;10.30;6.93;;;18.20;43.20;17.30;101604.00;;;;5060911;28;20055;-64
2022/03/17 03:32:16;;;;;;;10.65;7.72;;;18.30;43.30;17.30;101604.00;;;;5052192;28;20055;-64
2022/03/17 03:37:22;;;;;;;9.60;7.55;;;18.20;43.20;17.30;101607.00;;;;5060525;28;20068;-64
2022/03/17 03:38:08;;;;;;;10.82;7.70;;;18.20;43.20;17.30;101613.00;;;;5059777;28;20041;-64
2022/03/17 03:40:54;;;;;;;10.13;7.72;;;18.20;43.20;17.30;101602.00;;;;5057969;28;20080;-64
2022/03/17 03:43:40;;;;;;;10.75;7.03;;;18.20;43.20;17.30;101606.00;;;;5059181;28;20035;-64
2022/03/17 03:46:26;;;;;;;10.63;7.47;;;18.20;43.20;17.30;101616.00;;;;5066188;28;20462;-64
2022/03/17 03:49:12;;;;;;;9.57;7.05;;;18.20;43.20;17.30;101615.00;;;;5069296;28;20443;-64
2022/03/17 03:51:58;;;;;;;9.45;6.70;;;18.20;43.30;17.30;101617.00;;;;5061533;28;20539;-64
2022/03/17 03:54:45;;;;;;;11.45;7.75;;;18.20;43.30;17.30;101625.00;;;;5058818;28;20340;-64
2022/03/17 03:57:31;;;;;;;10.02;7.22;;;18.20;43.30;17.30;101609.00;;;;5065030;28;20060;-64
2022/03/17 04:03:08;;;;;;;11.93;7.22;;;18.30;43.30;17.30;101622.00;;;;5054292;28;20705;-64
2022/03/17 04:05:54;;;;;;;11.80;7.38;;;18.20;43.30;17.30;101621.00;;;;5040520;28;20243;-64
2022/03/17 04:08:40;;;;;;;9.90;7.15;;;18.20;43.30;17.30;101630.00;;;;5062207;28;20105;-64
2022/03/17 04:11:26;;;;;;;9.10;7.18;;;18.20;43.30;17.30;101625.00;;;;5060749;28;20040;-64
2022/03/17 04:14:13;;;;;;;12.23;7.47;;;18.20;43.30;17.30;101632.00;;;;5050356;28;20697;-64
2022/03/17 04:17:00;;;;;;;10.45;7.70;;;18.20;43.30;17.20;101634.00;;;;5060832;28;20087;-64
2022/03/17 04:19:46;;;;;;;10.27;6.97;;;18.20;43.30;17.30;101631.00;;;;5042625;28;20501;-64
2022/03/17 04:22:32;;;;;;;10.02;7.28;;;18.20;43.30;17.30;101632.00;;;;5064227;28;20043;-64
2022/03/17 04:25:18;;;;;;;9.70;7.22;;;18.20;43.30;17.30;101625.00;;;;5057225;28;20041;-63
2022/03/17 04:28:05;;;;;;;10.18;7.43;;;18.20;43.30;17.30;101626.00;;;;5055882;28;20402;-64
2022/03/17 04:30:51;;;;;;;10.15;7.05;;;18.20;43.30;17.30;101638.00;;;;5049693;28;20622;-63
2022/03/17 04:33:37;;;;;;;10.73;7.45;;;18.10;43.30;17.30;101644.00;;;;5057493;28;20167;-64
2022/03/17 04:36:23;;;;;;;10.77;7.10;;;18.50;43.50;17.20;101647.00;;;;5045070;28;20036;-64
2022/03/17 04:39:10;;;;;;;10.63;7.65;;;18.20;43.30;17.30;101654.00;;;;5052840;28;20075;-64
2022/03/17 04:41:56;;;;;;;11.98;7.72;;;18.20;43.40;17.30;101656.00;;;;5062285;28;20051;-64
2022/03/17 04:44:42;;;;;;;11.05;8.30;;;18.20;43.30;17.20;101663.00;;;;5041975;28;20033;-64
2022/03/17 04:47:28;;;;;;;10.75;8.05;;;18.20;43.30;17.20;101664.00;;;;5056294;28;20409;-64
2022/03/17 04:50:14;;;;;;;10.60;7.70;;;18.20;43.30;17.20;101665.00;;;;5058736;28;20037;-64
2022/03/17 04:56:10;;;;;;;11.60;8.07;;;18.20;43.30;17.20;101672.00;;;;5058781;28;20041;-64
2022/03/17 04:58:56;;;;;;;11.55;7.70;;;18.20;43.40;17.20;101668.00;;;;5059619;28;20049;-64
2022/03/17 05:01:42;;;;;;;11.98;7.78;;;18.30;43.40;17.20;101669.00;;;;5057799;28;20095;-64
2022/03/17 05:04:28;;;;;;;11.40;9.13;;;18.20;43.30;17.20;101672.00;;;;5053094;28;20482;-64
2022/03/17 05:07:14;;;;;;;9.20;7.50;;;18.20;43.30;17.20;101680.00;;;;5061730;28;20059;-63
2022/03/17 05:10:01;;;;;;;11.23;8.32;;;18.20;43.40;17.20;101675.00;;;;5057065;28;20452;-63
2022/03/17 05:12:47;;;;;;;11.77;8.90;;;18.20;43.40;17.20;101673.00;;;;5055558;28;20041;-64
2022/03/17 05:15:34;;;;;;;11.35;8.57;;;18.20;43.40;17.20;101687.00;;;;5062891;28;20044;-63
2022/03/17 05:18:20;;;;;;;12.52;8.80;;;18.20;43.40;17.20;101691.00;;;;5040101;28;20699;-64
2022/03/17 05:21:06;;;;;;;12.98;8.68;;;18.20;43.40;17.20;101700.00;;;;5076983;28;20125;-64
2022/03/17 05:23:52;;;;;;;11.73;8.43;;;18.20;43.40;17.20;101703.00;;;;5062175;28;20047;-64
2022/03/17 05:26:38;;;;;;;11.35;8.77;;;18.20;43.40;17.20;101706.00;;;;5055180;28;20066;-63
2022/03/17 05:29:25;;;;;;;11.57;8.40;;;18.20;43.50;17.20;101705.00;;;;5060423;28;20036;-63
2022/03/17 05:32:11;;;;;;;10.95;8.43;;;18.20;43.50;17.20;101724.00;;;;5055871;28;20037;-64
2022/03/17 05:34:58;;;;;;;12.85;8.75;;;18.20;43.50;17.20;101734.00;;;;5056524;28;20482;-63
2022/03/17 05:37:44;;;;;;;10.85;8.15;;;18.10;43.50;17.20;101733.00;;;;5045435;28;20062;-64
2022/03/17 05:40:30;;;;;;;12.27;9.30;;;18.10;43.50;17.20;101739.00;;;;5056597;28;20482;-64
2022/03/17 05:43:17;;;;;;;15.55;9.45;;;18.20;43.50;17.20;101766.00;;;;5056180;28;20445;-64
2022/03/17 05:46:03;;;;;;;13.15;9.25;;;18.20;43.50;17.20;101760.00;;;;5046777;28;20333;-64
2022/03/17 05:48:49;;;;;;;12.18;9.35;;;18.10;43.50;17.20;101764.00;;;;5056139;28;20482;-64
2022/03/17 05:51:35;;;;;;;11.50;9.68;;;18.10;43.50;17.20;101768.00;;;;5044545;28;20055;-64
2022/03/17 05:54:21;;;;;;;14.18;9.48;;;18.20;43.60;17.20;101782.00;;;;5061818;28;20405;-63
2022/03/17 05:57:10;;;;;;;12.52;9.57;;;18.10;43.60;17.20;101787.00;;;;5064948;28;20094;-64
2022/03/17 05:59:56;;;;;;;13.88;10.75;;;18.10;43.70;17.20;101788.00;;;;5054191;28;20037;-63
2022/03/17 06:02:43;;;;;;;13.13;10.00;;;18.10;43.80;17.20;101796.00;;;;5055515;28;20552;-64
2022/03/17 06:05:29;;;;;;;17.05;11.60;;;18.10;43.90;17.20;101796.00;;;;5058600;28;20041;-63
2022/03/17 06:08:15;;;;;;;17.00;10.43;;;18.10;44.20;17.20;101796.00;;;;5055935;28;20048;-64
2022/03/17 06:11:02;;;;;;;15.57;10.95;;;18.10;44.10;17.20;101799.00;;;;5057449;28;20292;-63
2022/03/17 06:13:48;;;;;;;17.40;11.60;;;18.10;44.30;17.20;101807.00;;;;5060322;28;20048;-64
2022/03/17 06:16:34;;;;;;;14.00;10.50;;;18.10;44.30;17.20;101812.00;;;;5061697;28;20040;-64
2022/03/17 06:19:20;;;;;;;16.98;11.15;;;18.10;44.40;17.20;101816.00;;;;5057734;28;20044;-64
2022/03/17 06:22:06;;;;;;;16.10;11.20;;;18.00;44.70;17.20;101824.00;;;;5058066;28;20037;-64
2022/03/17 06:24:52;;;;;;;13.43;10.77;;;18.10;44.90;17.20;101831.00;;;;5055975;28;20040;-64
2022/03/17 06:27:38;;;;;;;17.23;12.80;;;18.00;44.70;17.20;101834.00;;;;5062248;28;20398;-64
2022/03/17 06:30:28;;;;;;;15.45;12.25;;;18.00;44.90;17.20;101838.00;;;;5059618;28;20660;-64
2022/03/17 06:33:14;;;;;;;15.55;12.18;;;18.00;45.10;17.10;101843.00;;;;5030679;28;20043;-64
2022/03/17 06:36:00;;;;;;;18.92;12.55;;;18.10;45.20;17.20;101851.00;;;;5049331;28;20119;-64
2022/03/17 06:38:46;;;;;;;19.77;13.77;;;18.00;45.30;17.10;101847.00;;;;5054055;28;20051;-64
2022/03/17 06:41:32;;;;;;;17.60;13.35;;;18.00;45.50;17.10;101870.00;;;;5065084;28;20453;-64
2022/03/17 06:44:18;;;;;;;17.55;13.48;;;18.00;45.70;17.10;101870.00;;;;5060868;28;20048;-64
2022/03/17 06:47:04;;;;;;;18.85;12.80;;;18.00;45.90;17.20;101877.00;;;;5055125;28;20053;-64
2022/03/17 06:49:51;;;;;;;17.80;13.07;;;18.00;45.70;17.10;101885.00;;;;5053720;28;20111;-64
2022/03/17 06:52:37;;;;;;;17.10;13.50;;;18.00;45.90;17.10;101889.00;;;;5054015;28;20041;-64
2022/03/17 06:55:23;;;;;;;18.85;13.38;;;18.00;46.20;17.10;101901.00;;;;5070385;28;20043;-64
2022/03/17 06:58:09;;;;;;;19.58;14.05;;;18.00;46.40;17.10;101904.00;;;;5042389;28;20040;-64
2022/03/17 07:00:55;;;;;;;17.20;13.40;;;18.00;46.60;17.10;101912.00;;;;5030065;28;20120;-64
2022/03/17 07:03:41;;;;;;;16.90;13.50;;;18.00;46.60;17.10;101938.00;;;;5062699;28;20378;-64
2022/03/17 07:06:27;;;;;;;17.50;12.80;;;18.00;46.40;17.10;101956.00;;;;5059440;28;20163;-64
2022/03/17 07:09:13;;;;;;;15.35;11.82;;;18.00;46.70;17.10;101972.00;;;;5067036;28;20083;-64
2022/03/17 07:11:59;;;;;;;16.40;12.55;;;18.00;46.50;17.10;101976.00;;;;5063019;28;20033;-64
2022/03/17 07:14:45;;;;;;;12.93;9.93;;;18.00;46.40;17.10;101999.00;;;;5028537;28;20453;-64
2022/03/17 07:17:41;;;;;;;15.85;11.55;;;18.00;46.40;17.10;102003.00;;;;5057875;28;20044;-64
2022/03/17 07:20:27;;;;;;;13.23;10.10;;;17.90;46.40;17.10;102007.00;;;;5046844;28;20091;-64
2022/03/17 07:23:13;;;;;;;15.18;10.30;;;18.00;46.30;17.10;102015.00;;;;5056218;28;20094;-63
2022/03/17 07:25:59;;;;;;;12.95;9.02;;;18.00;46.40;17.10;102026.00;;;;5060311;28;20051;-64
2022/03/17 07:28:45;;;;;;;10.30;8.13;;;18.00;46.40;17.10;102027.00;;;;5058998;28;20037;-64
2022/03/17 07:31:32;;;;;;;10.00;7.85;;;18.00;46.40;17.10;102032.00;;;;5059949;28;20798;-63
2022/03/17 07:34:18;;;;;;;10.80;7.97;;;18.00;46.40;17.10;102043.00;;;;5054517;28;20037;-64
2022/03/17 07:37:04;;;;;;;10.48;8.23;;;18.00;46.40;17.10;102052.00;;;;5063493;28;20469;-64
2022/03/17 07:39:51;;;;;;;10.98;7.38;;;18.00;46.50;17.10;102060.00;;;;5059261;28;20101;-63
2022/03/17 07:42:37;;;;;;;10.70;6.80;;;18.00;46.40;17.10;102069.00;;;;5067207;28;20039;-64
2022/03/17 07:45:23;;;;;;;8.13;6.28;;;18.00;46.40;17.10;102072.00;;;;5068344;28;20134;-64
2022/03/17 07:48:09;;;;;;;8.35;6.38;;;18.00;46.40;17.10;102084.00;;;;5055533;28;20037;-64
2022/03/17 07:50:55;;;;;;;8.60;5.90;;;18.00;46.50;17.10;102087.00;;;;5058937;28;20040;-63
2022/03/17 07:53:41;;;;;;;7.18;5.03;;;17.90;46.40;17.10;102094.00;;;;5051038;28;20040;-64
2022/03/17 07:56:27;;;;;;;6.38;5.10;;;18.00;46.40;17.10;102094.00;;;;5060045;28;20662;-64
2022/03/17 07:59:14;;;;;;;6.38;4.90;;;18.00;46.40;17.10;102092.00;;;;5070098;28;20087;-64
2022/03/17 08:02:00;;;;;;;5.65;4.45;;;17.90;46.40;17.10;102097.00;;;;5057597;28;20047;-63
2022/03/17 08:04:48;;;;;;;6.65;4.47;;;18.00;46.50;17.10;102106.00;;;;5055563;28;20040;-63
2022/03/17 08:07:34;;;;;;;;;;;18.00;46.50;17.00;102117.00;;;;5046558;28;20040;-63
2022/03/17 08:10:20;;;;;;;4.65;3.88;;;17.90;46.10;17.00;102130.00;;;;5045766;28;19913;-64
2022/03/17 08:13:08;;;;;;;6.50;4.47;;;17.90;46.20;17.00;102136.00;;;;5058361;28;20037;-64
2022/03/17 08:15:54;;;;;;;5.55;3.78;;;18.00;46.30;17.00;102139.00;;;;5055899;28;20146;-64
2022/03/17 08:18:41;;;;;;;5.82;3.85;;;17.90;46.30;17.00;102141.00;;;;5048195;28;20033;-64
2022/03/17 08:21:27;;;;;;;6.55;3.50;;;17.90;46.40;17.00;102151.00;;;;5043058;28;20453;-64
2022/03/17 08:24:13;;;;;;;5.32;3.75;;;17.90;46.30;17.00;102160.00;;;;5066955;28;20048;-63
2022/03/17 08:27:02;;;;;;;5.15;3.45;;;17.90;46.30;17.00;102164.00;;;;5061425;28;20113;-64
2022/03/17 08:29:48;;;;;;;4.25;2.85;;;17.90;46.40;17.00;102170.00;;;;5059873;28;20081;-64
2022/03/17 08:32:34;;;;;;;4.95;2.90;;;17.90;46.50;17.00;102180.00;;;;5073965;28;20545;-63
2022/03/17 08:35:20;;;;;;;4.53;2.72;;;17.80;46.40;17.00;102183.00;;;;5062310;28;20040;-64
2022/03/17 08:38:06;;;;;;;4.85;2.70;;;17.80;46.40;17.00;102194.00;;;;5066787;28;20445;-64
2022/03/17 08:40:52;;;;;;;4.45;2.40;;;17.90;46.40;17.00;102197.00;;;;5067445;28;20047;-64
2022/03/17 08:43:38;;;;;;;3.97;2.03;;;17.80;46.40;17.00;102205.00;;;;5059220;28;20131;-63
2022/03/17 08:49:29;;;;;;;4.18;2.05;;;17.80;46.30;17.00;102220.00;;;;5055716;28;21780;-63
2022/03/17 08:52:15;;;;;;;3.65;2.17;;;17.80;46.40;17.00;102213.00;;;;5056542;28;20033;-63
2022/03/17 08:55:02;;;;;;;3.55;1.77;;;17.80;46.40;17.00;102221.00;;;;5054892;28;20036;-64
2022/03/17 08:57:49;;;;;;;3.42;1.90;;;17.70;46.30;17.00;102226.00;;;;5080485;28;20074;-63
2022/03/17 09:00:35;;;;;;;2.92;1.90;;;17.80;46.30;16.90;102228.00;;;;5077576;28;20505;-64
2022/03/17 09:03:21;;;;;;;3.45;1.83;;;17.80;46.40;17.00;102240.00;;;;5074097;28;20044;-63
2022/03/17 09:06:10;;;;;;;3.53;1.80;;;17.80;46.50;16.90;102244.00;;;;5053389;28;20047;-64
2022/03/17 09:08:56;;;;;;;2.90;1.60;;;17.80;46.40;17.00;102248.00;;;;5075281;28;20044;-64
2022/03/17 09:11:44;;;;;;;2.97;1.60;;;17.80;46.40;16.90;102255.00;;;;5077409;28;20040;-63
2022/03/17 09:14:30;;;;;;;;;;;17.80;46.50;16.90;102267.00;;;;5081426;28;20047;-64
2022/03/17 09:17:16;;;;;;;2.80;1.30;;;17.80;46.20;16.90;102263.00;;;;5090028;27;19917;-64
2022/03/17 09:20:03;;;;;;;5.43;1.63;;;17.90;46.30;16.90;102277.00;;;;5076564;28;20024;-64
2022/03/17 09:22:49;;;;;;;2.35;1.40;;;17.80;46.20;16.90;102287.00;;;;5059290;28;20472;-64
2022/03/17 09:25:35;;;;;;;1.77;1.17;;;17.80;46.20;16.90;102290.00;;;;5070543;28;20040;-64
2022/03/17 09:28:22;;;;;;;3.30;1.25;;;17.80;46.30;16.90;102303.00;;;;5073173;28;20071;-63
2022/03/17 09:31:08;;;;;;;2.92;1.05;;;17.80;46.40;16.90;102308.00;;;;5068674;28;20130;-64
2022/03/17 09:33:55;;;;;;;3.72;1.10;;;17.90;46.40;17.00;102310.00;;;;5057635;28;20116;-64
2022/03/17 09:36:41;;;;;;;5.43;1.57;;;17.80;46.20;16.90;102321.00;;;;5057537;28;20109;-63
2022/03/17 09:39:44;;;;;;;5.95;1.17;;;17.90;46.20;17.00;102320.00;;;;5056136;28;20044;-63
2022/03/17 09:42:30;;;;;;;3.10;1.15;;;17.80;46.20;16.90;102320.00;;;;5066313;28;20364;-64
2022/03/17 09:45:16;;;;;;;3.58;1.17;;;17.80;46.20;16.90;102332.00;;;;5053301;28;20029;-64
2022/03/17 09:48:02;;;;;;;1.48;0.85;;;17.80;46.30;16.90;102336.00;;;;5057672;28;20048;-63
2022/03/17 09:50:55;;;;;;;2.10;0.82;;;17.80;46.30;16.90;102339.00;;;;5063426;28;20111;-63
2022/03/17 09:53:41;;;;;;;2.63;1.20;;;17.80;46.30;16.90;102352.00;;;;5040666;28;20036;-64
2022/03/17 09:56:28;;;;;;;3.13;0.80;;;17.80;46.30;16.90;102348.00;;;;5058577;28;20025;-63
2022/03/17 09:59:14;;;;;;;2.63;0.88;;;17.80;46.30;16.90;102358.00;;;;5058319;28;20405;-64
2022/03/17 10:02:01;;;;;;;1.67;0.60;;;17.80;46.30;16.90;102355.00;;;;5039702;28;20554;-64
2022/03/17 10:04:50;;;;;;;1.30;0.75;;;17.80;46.30;16.90;102378.00;;;;5044473;28;20044;-63
2022/03/17 10:07:36;;;;;;;3.50;0.90;;;17.80;46.30;17.00;102378.00;;;;5056998;28;20040;-63
2022/03/17 10:10:38;;;;;;;2.58;0.70;;;17.80;46.30;16.90;102385.00;;;;5058606;28;20040;-63
2022/03/17 10:13:25;;;;;;;1.55;0.60;;;17.80;46.40;17.00;102392.00;;;;5045706;28;20044;-64
2022/03/17 10:16:20;;;;;;;5.43;0.60;;;17.80;46.30;17.00;102394.00;;;;5056374;28;20130;-63
2022/03/17 10:19:12;;;;;;;3.40;0.90;;;17.80;46.30;17.00;102400.00;;;;5041964;28;20068;-63
2022/03/17 10:22:12;;;;;;;1.67;0.50;;;17.90;46.40;17.00;102407.00;;;;5057462;28;20490;-63
2022/03/17 10:24:58;;;;;;;2.70;0.65;;;17.80;46.30;17.00;102418.00;;;;5052696;28;20045;-64
2022/03/17 10:27:51;;;;;;;3.65;0.73;;;17.80;46.30;17.00;102422.00;;;;5053946;28;20048;-63
2022/03/17 10:30:37;;;;;;;1.45;0.40;;;17.90;46.30;17.00;102433.00;;;;5056911;28;20040;-64
2022/03/17 10:33:28;;;;;;;1.98;0.70;;;17.90;46.30;16.90;102434.00;;;;5056931;28;20107;-63
2022/03/17 10:36:21;;;;;;;2.00;0.57;;;17.90;46.30;17.00;102443.00;;;;5057808;28;20036;-63
2022/03/17 10:39:08;;;;;;;2.30;0.60;;;17.80;46.30;17.00;102451.00;;;;5055421;28;20183;-63
2022/03/17 10:41:54;;;;;;;2.20;0.65;;;17.90;46.30;17.00;102471.00;;;;5055779;28;20033;-64
2022/03/17 10:44:51;;;;;;;3.40;0.50;;;17.90;46.30;17.00;102469.00;;;;5047843;28;20474;-64
2022/03/17 10:47:42;;;;;;;2.47;0.80;;;17.90;46.30;16.90;102473.00;;;;5050915;28;20098;-64
2022/03/17 10:50:36;;;;;;;5.05;0.75;;;17.80;46.20;16.90;102472.00;;;;5057913;28;20045;-63
2022/03/17 10:53:32;;;;;;;2.15;0.73;;;17.90;46.20;16.90;102479.00;;;;5048781;28;20037;-63
2022/03/17 10:56:20;;;;;;;1.70;0.55;;;17.90;46.10;17.00;102490.00;;;;5054971;28;20029;-63
2022/03/17 10:59:10;;;;;;;3.30;0.77;;;17.90;46.20;17.00;102487.00;;;;5059197;28;20037;-64
2022/03/17 11:01:56;;;;;;;3.13;0.57;;;17.90;46.10;17.00;102498.00;;;;5069281;28;20048;-63
2022/03/17 11:04:44;;;;;;;2.88;0.77;;;17.90;46.10;17.00;102495.00;;;;5041048;28;20037;-64
2022/03/17 11:07:30;;;;;;;2.58;0.70;;;17.90;46.10;17.00;102488.00;;;;5054988;28;20083;-64
2022/03/17 11:10:16;;;;;;;3.15;0.77;;;17.80;45.90;17.00;102501.00;;;;5044171;28;20032;-63
2022/03/17 11:13:09;;;;;;;3.30;0.65;;;17.90;46.00;17.00;102503.00;;;;5055931;28;20045;-63
2022/03/17 11:16:06;;;;;;;4.15;0.73;;;17.90;46.00;17.00;102516.00;;;;5055071;28;20045;-63
2022/03/17 11:18:53;;;;;;;4.28;0.85;;;17.90;45.90;17.00;102519.00;;;;5030627;28;20044;-65
2022/03/17 11:21:39;;;;;;;3.75;0.77;;;17.90;45.90;17.00;102531.00;;;;5047391;28;20051;-64
2022/03/17 11:24:25;;;;;;;3.35;0.90;;;17.90;45.80;17.00;102536.00;;;;5052580;28;20048;-64
2022/03/17 11:27:13;;;;;;;5.18;1.52;;;17.90;45.80;17.00;102541.00;;;;5062740;28;20036;-63
2022/03/17 11:30:06;;;;;;;4.35;0.85;;;17.90;45.80;17.00;102547.00;;;;5047636;28;20037;-64
2022/03/17 11:33:19;;;;;;;4.03;0.65;;;17.90;45.80;17.00;102539.00;;;;5043500;28;20059;-64
2022/03/17 11:36:08;;;;;;;3.42;0.65;;;17.90;45.70;17.00;102543.00;;;;5046669;28;20481;-63
2022/03/17 11:39:08;;;;;;;1.95;0.60;;;17.90;45.60;17.00;102546.00;;;;5060186;28;20036;-64
2022/03/17 11:41:54;;;;;;;3.33;0.85;;;17.90;45.60;17.00;102541.00;;;;5026603;28;20041;-63
2022/03/17 11:44:40;;;;;;;5.32;1.13;;;17.90;45.60;17.00;102544.00;;;;5066279;28;20032;-64
2022/03/17 11:47:27;;;;;;;4.00;0.93;;;17.90;45.60;17.00;102551.00;;;;5055068;28;20053;-64
2022/03/17 11:50:36;;;;;;;3.33;0.80;;;17.90;45.60;17.00;102549.00;;;;5058497;28;20041;-63
2022/03/17 11:53:37;;;;;;;4.55;0.70;;;17.90;45.60;17.00;102561.00;;;;5052948;28;20518;-63
2022/03/17 11:56:47;;;;;;;4.95;1.10;;;17.90;45.60;17.00;102562.00;;;;5046764;28;20050;-64
2022/03/17 11:59:54;;;;;;;2.55;0.60;;;17.90;45.60;17.00;102567.00;;;;5068362;28;20547;-63
2022/03/17 12:02:41;;;;;;;4.28;1.17;;;17.90;45.40;17.00;102563.00;;;;5065022;28;20482;-63
2022/03/17 12:05:27;;;;;;;3.25;0.85;;;17.90;45.40;17.00;102573.00;;;;5079372;28;20047;-63
2022/03/17 12:08:16;;;;;;;3.92;0.90;;;17.90;45.50;17.00;102573.00;;;;5067804;28;20615;-63
2022/03/17 12:11:05;;;;;;;6.13;0.98;;;17.90;45.40;17.00;102582.00;;;;5056126;28;20040;-63
2022/03/17 12:14:24;;;;;;;5.35;1.02;;;17.90;45.40;17.00;102581.00;;;;5061199;28;20041;-63
2022/03/17 12:17:19;;;;;;;4.65;0.95;;;17.90;45.50;17.00;102586.00;;;;5043940;28;20068;-64
2022/03/17 12:20:19;;;;;;;4.82;0.80;;;17.90;45.50;16.90;102596.00;;;;5029358;28;20375;-64
2022/03/17 12:23:05;;;;;;;3.28;0.63;;;17.90;45.50;16.90;102598.00;;;;5064086;28;20041;-63